Terminal Aerodrome Forecast
Issued by NWS

Home | Current Version | Previous Version | Graphics & Text | Print | Product List | Glossary On
Versions: 1 2 3 4 5 6 7 8 9 10 11 12 13 14 15
316
FTUS42 KMHX 231120
TAFISO
TAF
KISO 231120Z 2312/2412 VRB04KT P6SM SCT010
      TEMPO 2312/2314 BKN010
     FM231400 33006KT P6SM VCTS BKN025CB
     FM231800 33009KT P6SM VCTS BKN035CB
     FM232300 34004KT P6SM BKN050
     FM240600 00000KT P6SM SKC
      AMD LTD TO CLD VIS AND WIND=

USA.gov is the U.S. government's official web portal to all federal, state and local government web resources and services.